首页
METAR-TAF:

METAR-TAF

机场 :

阿根廷港, 福克兰群岛

纬度: 51-49S, 经度: 058-27W, 海拔: 74米

当前天气观测

该预报发布于32分钟前的12:22 UTC
风速10节,风向西
温度 -2°C
湿度 80%
气压 1017 hPa
能见度10公里或以上
少量云层高于3400英尺

METAR: EGYP 161222Z 28010KT 9999 FEW034 M02/M05 Q1017 NOSIG

时间: 09:54 (12:54 UTC)

预报

该预报发布于2小时和53分钟前的10:01 UTC
预报有效从16日的 12点(UTC)到 17日的 06点(UTC)
风速8节,风向西
能见度10公里或以上
散云层高于3400英尺

TAF: EGYP 161001Z 1612/1706 27008KT 9999 SCT034

超过4000个机场的气象观测和天气预报(METAR&TAF报告)。

可查询的气象台以黄色和红色小点在地图上表示。

将鼠标移到小点上方,可查看气象台名称。

然后点击查看天气观测和预报。

如需切换地图:点击带黑十字的绿色按钮放大地图;点击带横线的绿色按钮缩小地图;或者点击绿色箭头查看邻近地区的地图。


METAR-TAF: